Astoria, South Dakota
Current Conditions -  °F | °C
As of 10:54 PM on Monday 22 Dec 2014 (Local Time) from KCNB Reporting Station
Light Snow Light Snow  
Wind Chill: 26°   Ceiling: 200
Heat Index: 33°   Visibility: 1.5mi
Dew Point: 33°   Wind: 8mph
Humidity: 100%   Direction: 70°ENE
Pressure: 29.59"   Gusts: NA
Location:  44.56°N, 96.55°W
Report Text: KCNB 230454Z AUTO 07007KT 1 1/2SM -SN OVC002 01/01 A2959 RMK AO2 T00050005
Loading
Personal Weather Stations






























Interactive Weather Map New forecast layout! Learn more

10-Day Weather Forecast

Advertisements
Track Severe Weather on mobile